Time;durP1;ratioP1;P1;durP2;ratioP2;P2;SDS_P1;SDS_P2;PMS_P1;PMS_P2;Temp;Humidity;BMP_temperature;BMP_pressure;BME280_temperature;BME280_humidity;BME280_pressure;Samples;Min_cycle;Max_cycle;Signal;HPM_P1;HPM_P2
2023/12/14 00:04:09;;;;;;;20.73;15.93;;;9.70;99.90;;;;;;10402393;28;20328;-63
2023/12/14 00:09:13;;;;;;;19.77;16.33;;;9.60;99.90;;;;;;10406118;28;20208;-63
2023/12/14 00:14:18;;;;;;;19.47;15.77;;;9.60;99.90;;;;;;10403502;28;20278;-64
2023/12/14 00:19:25;;;;;;;19.40;14.17;;;9.70;99.90;;;;;;10396945;28;20274;-66
2023/12/14 00:24:28;;;;;;;15.63;13.03;;;9.60;99.90;;;;;;10399464;28;20329;-66
2023/12/14 00:29:33;;;;;;;12.87;10.93;;;9.60;99.90;;;;;;10401229;28;20282;-66
2023/12/14 00:34:37;;;;;;;12.13;9.93;;;9.50;99.90;;;;;;10394925;28;20216;-65
2023/12/14 00:39:40;;;;;;;11.37;9.20;;;9.50;99.90;;;;;;10394467;28;20204;-65
2023/12/14 00:44:45;;;;;;;11.07;8.90;;;9.50;99.90;;;;;;10394594;28;20255;-63
2023/12/14 00:49:49;;;;;;;9.30;7.77;;;9.40;99.90;;;;;;10394121;28;20204;-65
2023/12/14 00:55:05;;;;;;;9.37;7.60;;;9.50;99.90;;;;;;10395432;28;20259;-64
2023/12/14 01:00:12;;;;;;;8.43;7.53;;;9.40;99.90;;;;;;10398647;28;20658;-65
2023/12/14 01:05:16;;;;;;;8.07;7.27;;;9.40;99.90;;;;;;10402905;28;20318;-64
2023/12/14 01:10:20;;;;;;;8.10;7.30;;;9.30;99.90;;;;;;10396570;28;20203;-64
2023/12/14 01:15:25;;;;;;;7.17;6.47;;;9.30;99.90;;;;;;10401692;28;20228;-66
2023/12/14 01:20:29;;;;;;;7.20;6.50;;;9.30;99.90;;;;;;10403427;28;20239;-64
2023/12/14 01:25:32;;;;;;;6.97;6.23;;;9.30;99.90;;;;;;10405221;28;20306;-66
2023/12/14 01:30:37;;;;;;;7.00;6.40;;;9.20;99.90;;;;;;10406142;28;20216;-66
2023/12/14 01:35:41;;;;;;;7.27;6.57;;;9.30;99.90;;;;;;10408923;28;20277;-65
2023/12/14 01:40:45;;;;;;;8.03;7.20;;;9.20;99.90;;;;;;10411756;28;20208;-65
2023/12/14 01:45:50;;;;;;;8.27;7.40;;;9.20;99.90;;;;;;10413025;28;20200;-65
2023/12/14 01:50:54;;;;;;;8.53;7.33;;;9.20;99.90;;;;;;10412310;28;20250;-65
2023/12/14 01:55:57;;;;;;;10.33;9.03;;;9.20;99.90;;;;;;10409560;28;20204;-65
2023/12/14 02:01:09;;;;;;;9.93;8.77;;;9.20;99.90;;;;;;10406333;28;20273;-65
2023/12/14 02:06:12;;;;;;;11.43;10.20;;;9.20;99.90;;;;;;10407299;28;20228;-66
2023/12/14 02:11:16;;;;;;;12.93;11.53;;;9.20;99.90;;;;;;10411654;28;20229;-65
2023/12/14 02:16:21;;;;;;;14.03;12.53;;;9.20;99.90;;;;;;10408001;28;20261;-65
2023/12/14 02:21:25;;;;;;;13.57;11.93;;;9.20;99.90;;;;;;10407386;28;20312;-65
2023/12/14 02:26:30;;;;;;;16.17;13.57;;;9.20;99.90;;;;;;10404049;28;20204;-66
2023/12/14 02:31:34;;;;;;;12.70;10.87;;;9.10;99.90;;;;;;10405910;28;20722;-66
2023/12/14 02:36:37;;;;;;;12.63;11.33;;;9.10;99.90;;;;;;10408077;28;20262;-65
2023/12/14 02:41:42;;;;;;;14.23;12.57;;;9.00;99.90;;;;;;10407754;28;20224;-67
2023/12/14 02:46:46;;;;;;;14.50;12.07;;;9.00;99.90;;;;;;10406846;28;20216;-66
2023/12/14 02:51:49;;;;;;;15.07;12.00;;;9.00;99.90;;;;;;10406654;28;20212;-66
2023/12/14 02:56:55;;;;;;;16.50;12.57;;;9.00;99.90;;;;;;10405556;28;20246;-65
2023/12/14 03:01:59;;;;;;;15.43;12.90;;;9.00;99.90;;;;;;10405974;28;20624;-66
2023/12/14 03:07:03;;;;;;;16.87;13.67;;;8.90;99.90;;;;;;10403415;28;20208;-66
2023/12/14 03:12:08;;;;;;;16.73;13.70;;;8.90;99.90;;;;;;10400404;28;20216;-66
2023/12/14 03:17:12;;;;;;;17.80;14.07;;;8.90;99.90;;;;;;10400696;28;20623;-66
2023/12/14 03:22:16;;;;;;;17.77;13.87;;;8.90;99.90;;;;;;10402330;28;20680;-66
2023/12/14 03:27:22;;;;;;;18.97;14.30;;;8.90;99.90;;;;;;10405979;28;20614;-66
2023/12/14 03:32:26;;;;;;;15.47;12.83;;;8.90;99.90;;;;;;10406356;28;20220;-68
2023/12/14 03:37:29;;;;;;;15.33;12.87;;;8.90;99.90;;;;;;10404898;28;20200;-63
2023/12/14 03:42:34;;;;;;;14.10;11.90;;;8.90;99.90;;;;;;10407716;28;20565;-65
2023/12/14 03:47:38;;;;;;;13.30;11.13;;;8.80;99.90;;;;;;10407949;28;20227;-66
2023/12/14 03:52:42;;;;;;;14.53;12.03;;;8.80;99.90;;;;;;10408910;28;20705;-65
2023/12/14 03:57:47;;;;;;;13.70;11.90;;;8.80;99.90;;;;;;10406630;28;20552;-64
2023/12/14 04:02:51;;;;;;;14.43;12.60;;;8.80;99.90;;;;;;10404769;28;20278;-64
2023/12/14 04:07:55;;;;;;;15.53;12.40;;;8.80;99.90;;;;;;10370858;28;20255;-66
2023/12/14 04:13:00;;;;;;;14.87;12.10;;;8.80;99.90;;;;;;10365078;28;20267;-66
2023/12/14 04:18:03;;;;;;;12.57;10.67;;;8.70;99.90;;;;;;10362345;28;20205;-65
2023/12/14 04:23:07;;;;;;;14.93;11.13;;;8.70;99.90;;;;;;10366142;28;20216;-63
2023/12/14 04:28:12;;;;;;;12.43;10.33;;;8.70;99.90;;;;;;10365057;28;20224;-63
2023/12/14 04:33:16;;;;;;;11.53;10.13;;;8.70;99.90;;;;;;10362547;28;20291;-66
2023/12/14 04:38:19;;;;;;;11.60;9.67;;;8.70;99.90;;;;;;10366598;28;20224;-66
2023/12/14 04:43:24;;;;;;;10.57;9.47;;;8.60;99.90;;;;;;10364624;28;20276;-65
2023/12/14 04:48:28;;;;;;;12.70;9.30;;;8.70;99.90;;;;;;10361257;28;20617;-67
2023/12/14 04:53:31;;;;;;;10.97;8.53;;;8.60;99.90;;;;;;10367603;28;20243;-65
2023/12/14 04:58:36;;;;;;;10.47;8.63;;;8.60;99.90;;;;;;10373240;28;20209;-66
2023/12/14 05:03:40;;;;;;;11.33;9.00;;;8.60;99.90;;;;;;10371402;28;20227;-64
2023/12/14 05:08:44;;;;;;;12.67;9.37;;;8.60;99.90;;;;;;10373959;28;20610;-65
2023/12/14 05:13:48;;;;;;;10.97;8.67;;;8.60;99.90;;;;;;10370082;28;20223;-65
2023/12/14 05:18:52;;;;;;;10.37;9.27;;;8.60;99.90;;;;;;10371660;28;20259;-65
2023/12/14 05:23:56;;;;;;;11.33;9.33;;;8.50;99.90;;;;;;10369447;28;20688;-67
2023/12/14 05:29:01;;;;;;;10.87;9.10;;;8.50;99.90;;;;;;10372373;28;20657;-67
2023/12/14 05:34:04;;;;;;;10.20;8.90;;;8.50;99.90;;;;;;10370917;28;20215;-66
2023/12/14 05:39:09;;;;;;;10.93;9.23;;;8.50;99.90;;;;;;10373052;28;20207;-67
2023/12/14 05:44:14;;;;;;;12.57;10.47;;;8.50;99.90;;;;;;10368820;28;20567;-66
2023/12/14 05:49:17;;;;;;;11.43;10.17;;;8.50;99.90;;;;;;10371449;28;20564;-69
2023/12/14 05:54:21;;;;;;;12.43;10.60;;;8.50;99.90;;;;;;10370152;28;20275;-66
2023/12/14 05:59:26;;;;;;;13.53;11.77;;;8.50;99.90;;;;;;10372044;28;20246;-66
2023/12/14 06:04:30;;;;;;;14.17;12.40;;;8.40;99.90;;;;;;10366292;28;20278;-68
2023/12/14 06:09:34;;;;;;;15.70;13.03;;;8.50;99.90;;;;;;10368922;28;20200;-67
2023/12/14 06:14:40;;;;;;;16.63;12.90;;;8.50;99.90;;;;;;10363119;28;20678;-67
2023/12/14 06:19:43;;;;;;;18.03;14.33;;;8.50;99.90;;;;;;10362342;28;20251;-66
2023/12/14 06:24:47;;;;;;;17.27;13.80;;;8.40;99.90;;;;;;10368967;28;20298;-66
2023/12/14 06:29:52;;;;;;;17.73;13.77;;;8.50;99.90;;;;;;10368783;28;20591;-67
2023/12/14 06:34:55;;;;;;;15.30;12.53;;;8.40;99.90;;;;;;10367402;28;20242;-66
2023/12/14 06:39:59;;;;;;;17.23;13.63;;;8.40;99.90;;;;;;10367604;28;20239;-68
2023/12/14 06:45:05;;;;;;;16.57;13.67;;;8.40;99.90;;;;;;10364556;28;20260;-66
2023/12/14 06:50:09;;;;;;;16.90;13.63;;;8.40;99.90;;;;;;10368830;28;20201;-67
2023/12/14 06:55:14;;;;;;;16.47;13.70;;;8.40;99.90;;;;;;10368095;28;20776;-66
2023/12/14 07:00:19;;;;;;;16.60;13.83;;;8.40;99.90;;;;;;10369605;28;20200;-66
2023/12/14 07:05:23;;;;;;;17.53;14.93;;;8.40;99.90;;;;;;10367836;28;20259;-66
2023/12/14 07:10:27;;;;;;;17.53;13.47;;;8.40;99.90;;;;;;10367729;28;20201;-69
2023/12/14 07:15:32;;;;;;;15.87;13.50;;;8.30;99.90;;;;;;10365089;28;20633;-68
2023/12/14 07:20:36;;;;;;;15.50;12.73;;;8.30;99.90;;;;;;10367925;28;20207;-69
2023/12/14 07:25:39;;;;;;;14.30;11.93;;;8.30;99.90;;;;;;10365101;28;20221;-68
2023/12/14 07:30:46;;;;;;;14.53;11.77;;;8.30;99.90;;;;;;10363474;28;20258;-68
2023/12/14 07:35:49;;;;;;;14.10;10.93;;;8.30;99.90;;;;;;10361737;28;20197;-67
2023/12/14 07:40:53;;;;;;;14.53;11.10;;;8.30;99.90;;;;;;10362602;28;20204;-67
2023/12/14 07:45:59;;;;;;;13.63;10.77;;;8.30;99.90;;;;;;10364189;28;20267;-68
2023/12/14 07:51:02;;;;;;;13.73;11.03;;;8.30;99.90;;;;;;10362410;28;20199;-67
2023/12/14 07:56:07;;;;;;;13.40;10.80;;;8.30;99.90;;;;;;10366262;28;20205;-67
2023/12/14 08:01:12;;;;;;;15.23;11.43;;;8.30;99.90;;;;;;10367881;28;20276;-67
2023/12/14 08:06:16;;;;;;;16.07;13.07;;;8.30;99.90;;;;;;10364903;28;20329;-67
2023/12/14 08:11:20;;;;;;;14.83;12.47;;;8.30;99.90;;;;;;10358383;28;20345;-67
2023/12/14 08:16:25;;;;;;;15.00;12.50;;;8.30;99.90;;;;;;10366890;28;20234;-66
2023/12/14 08:21:28;;;;;;;18.27;14.53;;;8.30;99.90;;;;;;10362417;28;20224;-65
2023/12/14 08:26:32;;;;;;;19.00;13.97;;;8.20;99.90;;;;;;10363878;28;20266;-66
2023/12/14 08:31:37;;;;;;;19.63;15.20;;;8.20;99.90;;;;;;10365879;28;20238;-67
2023/12/14 08:36:41;;;;;;;23.40;16.73;;;8.20;99.90;;;;;;10357692;28;20198;-67
2023/12/14 08:41:46;;;;;;;24.10;17.33;;;8.20;99.90;;;;;;10357972;28;20237;-66
2023/12/14 08:46:51;;;;;;;25.37;16.57;;;8.20;99.90;;;;;;10362994;28;20249;-66
2023/12/14 08:51:55;;;;;;;21.50;15.43;;;8.20;99.90;;;;;;10365093;28;20229;-67
2023/12/14 08:57:00;;;;;;;22.90;17.27;;;8.20;99.90;;;;;;10366448;28;20671;-65
2023/12/14 09:02:06;;;;;;;24.80;17.43;;;8.20;99.90;;;;;;10362451;28;20637;-65
2023/12/14 09:07:09;;;;;;;22.40;16.77;;;8.20;99.90;;;;;;10365303;28;20221;-66
2023/12/14 09:12:13;;;;;;;20.30;16.17;;;8.20;99.90;;;;;;10365662;28;20228;-67
2023/12/14 09:17:18;;;;;;;24.37;17.23;;;8.20;99.90;;;;;;10364351;28;20663;-67
2023/12/14 09:22:22;;;;;;;20.63;16.60;;;8.20;99.90;;;;;;10363064;28;20220;-66
2023/12/14 09:27:25;;;;;;;21.73;16.60;;;8.20;99.90;;;;;;10363111;28;20220;-65
2023/12/14 09:32:31;;;;;;;21.47;17.10;;;8.20;99.90;;;;;;10364777;28;20290;-66
2023/12/14 09:37:35;;;;;;;20.53;15.87;;;8.30;99.90;;;;;;10367232;28;20201;-66
2023/12/14 09:42:40;;;;;;;21.13;16.77;;;8.30;99.90;;;;;;10373848;28;20564;-65
2023/12/14 09:47:47;;;;;;;20.43;16.00;;;8.30;99.90;;;;;;10368089;28;20236;-65
2023/12/14 09:52:51;;;;;;;20.20;15.83;;;8.30;99.90;;;;;;10367814;28;20299;-66
2023/12/14 09:57:54;;;;;;;21.83;17.37;;;8.30;99.90;;;;;;10373611;28;20557;-63
2023/12/14 10:03:19;;;;;;;19.67;16.47;;;8.30;99.90;;;;;;10366207;28;20246;-63
2023/12/14 10:08:23;;;;;;;21.67;17.20;;;8.30;99.90;;;;;;10350297;28;20228;-63
2023/12/14 10:13:37;;;;;;;21.13;15.70;;;8.30;99.90;;;;;;10360633;28;20236;-63
2023/12/14 10:18:43;;;;;;;21.27;15.83;;;8.30;99.90;;;;;;10357495;28;20202;-63
2023/12/14 10:23:47;;;;;;;19.10;15.90;;;8.30;99.90;;;;;;10370305;28;20454;-63
2023/12/14 10:28:51;;;;;;;20.60;16.57;;;8.30;99.90;;;;;;10372066;28;20285;-63
2023/12/14 10:33:56;;;;;;;19.87;16.03;;;8.30;99.90;;;;;;10355989;28;20220;-62
2023/12/14 10:39:02;;;;;;;19.33;16.23;;;8.30;99.90;;;;;;10358370;28;20755;-62
2023/12/14 10:44:07;;;;;;;18.97;15.73;;;8.40;99.90;;;;;;10368402;28;20777;-63
2023/12/14 10:49:34;;;;;;;20.93;16.17;;;8.40;99.90;;;;;;10370476;28;20208;-64
2023/12/14 10:54:39;;;;;;;20.27;16.70;;;8.30;99.90;;;;;;10370637;28;20220;-63
2023/12/14 10:59:43;;;;;;;20.30;17.10;;;8.30;99.90;;;;;;10372968;28;20223;-62
2023/12/14 11:05:01;;;;;;;22.10;17.60;;;8.30;99.90;;;;;;10362747;28;20216;-63
2023/12/14 11:10:06;;;;;;;18.97;15.50;;;8.30;99.90;;;;;;10366007;28;20200;-63
2023/12/14 11:15:10;;;;;;;19.23;15.87;;;8.20;99.90;;;;;;10362709;28;20267;-63
2023/12/14 11:20:47;;;;;;;16.60;12.77;;;8.30;99.90;;;;;;10358436;28;20234;-65
2023/12/14 11:25:52;;;;;;;15.83;12.60;;;8.30;99.90;;;;;;10368003;28;20293;-62
2023/12/14 11:31:06;;;;;;;16.23;11.97;;;8.20;99.90;;;;;;10364169;28;20218;-62
2023/12/14 11:36:12;;;;;;;18.27;13.73;;;8.20;99.90;;;;;;10371507;28;20193;-62
2023/12/14 11:41:17;;;;;;;19.43;13.00;;;8.20;99.90;;;;;;10357666;28;20590;-62
2023/12/14 11:46:21;;;;;;;17.97;13.03;;;8.20;99.90;;;;;;10371563;28;20220;-62
2023/12/14 11:51:26;;;;;;;15.33;12.27;;;8.10;99.90;;;;;;10370818;28;20221;-64
2023/12/14 11:56:30;;;;;;;15.73;12.83;;;8.20;99.90;;;;;;10363198;28;20260;-63
2023/12/14 12:01:35;;;;;;;15.17;11.63;;;8.10;99.90;;;;;;10369149;28;20228;-64
2023/12/14 12:06:41;;;;;;;17.23;11.60;;;8.20;99.90;;;;;;10367335;28;20279;-64
2023/12/14 12:11:44;;;;;;;18.47;11.77;;;8.20;99.90;;;;;;10368621;28;20228;-65
2023/12/14 12:16:50;;;;;;;20.93;12.13;;;8.20;99.90;;;;;;10362726;28;20204;-63
2023/12/14 12:21:55;;;;;;;22.70;13.57;;;8.20;99.90;;;;;;10369499;28;20221;-69
2023/12/14 12:26:58;;;;;;;18.30;14.30;;;8.20;99.90;;;;;;10359095;28;20758;-66
2023/12/14 12:32:02;;;;;;;19.10;13.23;;;8.20;99.90;;;;;;10366321;28;20290;-63
2023/12/14 12:37:07;;;;;;;18.33;13.57;;;8.10;99.90;;;;;;10366830;28;20227;-63
2023/12/14 12:42:11;;;;;;;17.13;13.57;;;8.10;99.90;;;;;;10365981;28;20223;-64
2023/12/14 12:47:15;;;;;;;19.17;13.83;;;8.10;99.90;;;;;;10367287;28;20224;-63
2023/12/14 12:52:20;;;;;;;18.50;13.33;;;8.10;99.90;;;;;;10367141;28;20290;-63
2023/12/14 12:57:23;;;;;;;19.53;13.43;;;8.10;99.90;;;;;;10365432;28;20615;-64
2023/12/14 13:02:27;;;;;;;16.30;13.53;;;8.10;99.90;;;;;;10367200;28;20687;-65
2023/12/14 13:07:32;;;;;;;16.73;13.37;;;8.10;99.90;;;;;;10367406;28;20248;-66
2023/12/14 13:12:36;;;;;;;17.57;13.17;;;8.30;99.90;;;;;;10371129;28;20251;-66
2023/12/14 13:17:40;;;;;;;14.50;11.50;;;8.20;99.90;;;;;;10373464;28;20197;-65
2023/12/14 13:22:45;;;;;;;15.87;12.20;;;8.10;99.90;;;;;;10374392;28;20225;-65
2023/12/14 13:27:49;;;;;;;15.53;11.50;;;8.10;99.90;;;;;;10374661;28;20595;-66
2023/12/14 13:32:53;;;;;;;12.93;10.53;;;8.10;99.90;;;;;;10372899;28;20232;-65
2023/12/14 13:37:59;;;;;;;13.63;10.60;;;8.10;99.90;;;;;;10373167;28;20255;-65
2023/12/14 13:43:09;;;;;;;14.47;10.80;;;8.10;99.90;;;;;;10370193;28;20223;-65
2023/12/14 13:48:13;;;;;;;13.60;10.10;;;8.10;99.90;;;;;;10373151;28;20236;-64
2023/12/14 13:53:18;;;;;;;15.17;10.17;;;8.10;99.90;;;;;;10371866;28;20220;-66
2023/12/14 13:58:22;;;;;;;15.17;10.60;;;8.10;99.90;;;;;;10370033;28;20201;-64
2023/12/14 14:03:27;;;;;;;11.90;9.17;;;8.10;99.90;;;;;;10369108;28;20251;-67
2023/12/14 14:08:32;;;;;;;9.97;8.60;;;8.10;99.90;;;;;;10367374;28;20390;-66
2023/12/14 14:13:36;;;;;;;10.97;9.10;;;8.00;99.90;;;;;;10370354;28;20275;-65
2023/12/14 14:18:39;;;;;;;12.70;10.20;;;8.00;99.90;;;;;;10368382;28;20266;-65
2023/12/14 14:23:45;;;;;;;13.20;10.87;;;8.00;99.90;;;;;;10369042;28;20224;-65
2023/12/14 14:28:49;;;;;;;13.10;11.30;;;8.00;99.90;;;;;;10368265;28;20247;-66
2023/12/14 14:33:52;;;;;;;15.10;11.40;;;7.90;99.90;;;;;;10370323;28;20223;-66
2023/12/14 14:38:57;;;;;;;14.40;11.07;;;7.90;99.90;;;;;;10372143;28;20675;-67
2023/12/14 14:44:01;;;;;;;14.07;11.50;;;7.90;99.90;;;;;;10330368;28;20251;-66
2023/12/14 14:49:05;;;;;;;14.47;12.57;;;7.90;99.90;;;;;;10371959;28;20580;-66
2023/12/14 14:54:10;;;;;;;13.87;11.90;;;7.90;99.90;;;;;;10367253;28;20224;-63
2023/12/14 14:59:15;;;;;;;16.53;12.73;;;7.90;99.90;;;;;;10370877;28;20209;-63
2023/12/14 15:04:19;;;;;;;19.17;15.40;;;7.80;99.90;;;;;;10368439;28;20274;-62
2023/12/14 15:09:24;;;;;;;18.00;15.77;;;7.70;99.90;;;;;;10370397;28;20232;-63
2023/12/14 15:14:28;;;;;;;14.53;12.37;;;7.70;99.90;;;;;;10370779;28;20223;-63
2023/12/14 15:19:31;;;;;;;16.40;12.90;;;7.70;99.90;;;;;;10367298;28;20208;-62
2023/12/14 15:24:36;;;;;;;15.80;13.33;;;7.70;99.90;;;;;;10369709;28;20248;-63
2023/12/14 15:29:40;;;;;;;16.77;14.07;;;7.70;99.90;;;;;;10369127;28;20223;-66
2023/12/14 15:34:44;;;;;;;14.93;12.30;;;7.80;99.90;;;;;;10369324;28;20242;-65
2023/12/14 15:39:49;;;;;;;15.17;12.47;;;7.80;99.90;;;;;;10369216;28;20252;-67
2023/12/14 15:44:53;;;;;;;14.50;11.87;;;7.80;99.90;;;;;;10368017;28;20216;-66
2023/12/14 15:49:57;;;;;;;18.77;15.33;;;7.70;99.80;;;;;;10367728;28;20221;-66
2023/12/14 15:55:05;;;;;;;16.30;12.80;;;7.70;99.90;;;;;;10369032;28;20219;-66
2023/12/14 16:00:09;;;;;;;14.63;11.57;;;7.70;99.90;;;;;;10368931;28;20197;-67
2023/12/14 16:05:12;;;;;;;13.67;10.70;;;7.70;99.90;;;;;;10367178;28;20217;-66
2023/12/14 16:10:18;;;;;;;13.23;10.43;;;7.70;99.70;;;;;;10372209;28;20221;-68
2023/12/14 16:15:21;;;;;;;14.03;10.77;;;7.60;99.60;;;;;;10369259;28;20602;-67
2023/12/14 16:20:25;;;;;;;14.80;11.00;;;7.60;99.70;;;;;;10368270;28;20331;-65
2023/12/14 16:25:31;;;;;;;13.33;10.37;;;7.60;99.70;;;;;;10367588;28;20206;-66
2023/12/14 16:30:35;;;;;;;13.40;10.77;;;7.60;99.10;;;;;;10367721;28;20219;-67
2023/12/14 16:35:40;;;;;;;15.50;11.00;;;7.60;98.90;;;;;;10367890;28;20270;-67
2023/12/14 16:40:45;;;;;;;15.07;11.50;;;7.60;98.90;;;;;;10368287;28;20227;-65
2023/12/14 16:45:53;;;;;;;13.77;10.53;;;7.60;99.20;;;;;;10367255;28;20594;-67
2023/12/14 16:50:57;;;;;;;16.27;11.37;;;7.60;99.00;;;;;;10366300;28;20220;-67
2023/12/14 16:56:05;;;;;;;18.60;14.20;;;7.60;99.10;;;;;;10367109;28;20251;-66
2023/12/14 17:01:08;;;;;;;16.93;12.60;;;7.60;99.40;;;;;;10366762;28;20200;-66
2023/12/14 17:06:13;;;;;;;14.20;11.63;;;7.60;99.40;;;;;;10366392;28;20262;-66
2023/12/14 17:11:20;;;;;;;14.30;11.33;;;7.70;99.10;;;;;;10366999;28;20312;-67
2023/12/14 17:16:24;;;;;;;16.07;12.77;;;7.70;99.00;;;;;;10366748;28;20254;-66
2023/12/14 17:21:29;;;;;;;14.77;12.17;;;7.70;98.80;;;;;;10366528;28;20239;-68
2023/12/14 17:26:34;;;;;;;14.03;10.80;;;7.70;98.90;;;;;;10363913;28;20230;-67
2023/12/14 17:31:39;;;;;;;16.63;11.77;;;7.70;98.70;;;;;;10365765;28;20227;-65
2023/12/14 17:36:43;;;;;;;15.03;11.13;;;7.80;98.40;;;;;;10366976;28;20261;-66
2023/12/14 17:41:48;;;;;;;15.00;10.67;;;7.70;97.90;;;;;;10366153;28;20219;-67
2023/12/14 17:46:51;;;;;;;15.23;11.70;;;7.60;98.30;;;;;;10359790;28;20625;-66
2023/12/14 17:51:55;;;;;;;16.30;12.03;;;7.60;98.40;;;;;;10365448;28;20356;-66
2023/12/14 17:57:00;;;;;;;13.50;10.80;;;7.60;98.30;;;;;;10366824;28;20227;-67
2023/12/14 18:02:04;;;;;;;16.93;11.37;;;7.60;98.30;;;;;;10367830;28;20641;-67
2023/12/14 18:07:07;;;;;;;16.97;11.30;;;7.60;98.20;;;;;;10375091;28;20247;-66
2023/12/14 18:12:12;;;;;;;14.00;11.57;;;7.60;98.20;;;;;;10374164;28;20695;-67
2023/12/14 18:17:18;;;;;;;15.17;11.60;;;7.60;98.20;;;;;;10376209;28;20273;-67
2023/12/14 18:22:22;;;;;;;15.13;11.20;;;7.60;98.40;;;;;;10375970;28;20220;-66
2023/12/14 18:27:28;;;;;;;16.77;12.50;;;7.60;98.10;;;;;;10334344;28;20203;-63
2023/12/14 18:32:31;;;;;;;16.30;11.90;;;7.60;98.40;;;;;;10353252;28;20611;-63
2023/12/14 18:37:35;;;;;;;16.10;12.07;;;7.60;98.60;;;;;;10378838;28;20721;-63
2023/12/14 18:42:41;;;;;;;15.73;12.03;;;7.50;98.60;;;;;;10376588;28;20255;-64
2023/12/14 18:47:45;;;;;;;17.77;12.40;;;7.50;98.60;;;;;;10376286;28;20558;-63
2023/12/14 18:52:48;;;;;;;14.83;12.03;;;7.50;98.60;;;;;;10374774;28;20225;-63
2023/12/14 18:57:54;;;;;;;17.73;12.90;;;7.50;98.70;;;;;;10374631;28;20665;-65
2023/12/14 19:02:57;;;;;;;16.77;12.37;;;7.40;98.70;;;;;;10374725;28;20645;-62
2023/12/14 19:08:01;;;;;;;18.13;12.83;;;7.40;98.70;;;;;;10371977;28;20208;-62
2023/12/14 19:13:06;;;;;;;17.40;12.90;;;7.40;98.70;;;;;;10375927;28;20224;-62
2023/12/14 19:18:10;;;;;;;19.83;14.27;;;7.30;98.80;;;;;;10369689;28;20204;-64
2023/12/14 19:23:17;;;;;;;19.03;14.00;;;7.20;98.80;;;;;;10313397;28;20231;-60
2023/12/14 19:28:23;;;;;;;23.90;15.50;;;7.20;99.00;;;;;;10370480;28;20761;-63
2023/12/14 19:33:27;;;;;;;19.60;15.00;;;7.10;98.90;;;;;;10307965;28;20701;-64
2023/12/14 19:38:31;;;;;;;19.00;13.70;;;7.10;98.90;;;;;;10370112;28;20451;-64
2023/12/14 19:43:36;;;;;;;19.70;15.50;;;7.00;98.70;;;;;;10370386;28;20246;-65
2023/12/14 19:48:40;;;;;;;25.40;18.47;;;6.90;98.70;;;;;;10369913;28;20227;-65
2023/12/14 19:53:43;;;;;;;25.13;19.00;;;6.90;98.90;;;;;;10369577;28;20300;-63
2023/12/14 19:58:48;;;;;;;26.13;18.67;;;6.90;99.10;;;;;;10371063;28;20198;-64
2023/12/14 20:03:52;;;;;;;25.23;18.77;;;6.80;98.90;;;;;;10370909;28;20221;-64
2023/12/14 20:08:56;;;;;;;23.83;17.50;;;6.90;99.00;;;;;;10369813;28;20223;-64
2023/12/14 20:14:01;;;;;;;48.47;25.30;;;6.90;99.10;;;;;;10369836;28;20597;-64
2023/12/14 20:19:04;;;;;;;103.50;46.77;;;6.90;99.10;;;;;;10369857;28;20735;-64
2023/12/14 20:24:09;;;;;;;37.43;23.87;;;6.90;99.20;;;;;;10363793;28;20270;-64
2023/12/14 20:29:14;;;;;;;23.73;16.53;;;7.00;99.30;;;;;;10368977;28;20222;-65
2023/12/14 20:34:17;;;;;;;25.23;19.57;;;7.00;99.30;;;;;;10368406;28;20220;-64
2023/12/14 20:39:21;;;;;;;23.50;17.33;;;7.00;99.40;;;;;;10368541;28;20203;-65
2023/12/14 20:44:26;;;;;;;24.57;17.13;;;7.10;99.40;;;;;;10366861;28;20220;-64
2023/12/14 20:49:30;;;;;;;25.50;18.67;;;7.10;99.40;;;;;;10367480;28;20594;-65
2023/12/14 20:54:34;;;;;;;24.33;18.10;;;7.10;99.50;;;;;;10360144;28;20284;-65
2023/12/14 20:59:39;;;;;;;22.73;16.90;;;7.10;99.50;;;;;;10364741;28;20224;-65
2023/12/14 21:04:42;;;;;;;21.87;16.60;;;7.10;99.40;;;;;;10357361;28;21041;-65
2023/12/14 21:09:46;;;;;;;23.50;16.97;;;7.20;99.50;;;;;;10307793;28;20242;-65
2023/12/14 21:14:51;;;;;;;24.57;16.30;;;7.20;99.40;;;;;;10362853;28;20333;-65
2023/12/14 21:19:55;;;;;;;21.13;16.57;;;7.20;99.40;;;;;;10360428;28;20774;-65
2023/12/14 21:25:01;;;;;;;23.47;17.23;;;7.20;99.40;;;;;;10358242;28;20225;-65
2023/12/14 21:30:07;;;;;;;23.67;17.70;;;7.30;99.40;;;;;;10356630;28;20788;-64
2023/12/14 21:35:11;;;;;;;23.63;17.23;;;7.30;99.40;;;;;;10361063;28;20224;-63
2023/12/14 21:40:15;;;;;;;26.33;18.63;;;7.30;99.30;;;;;;10361370;28;20208;-65
2023/12/14 21:45:20;;;;;;;25.97;18.80;;;7.30;99.40;;;;;;10361817;28;20224;-65
2023/12/14 21:50:24;;;;;;;29.67;18.40;;;7.30;99.40;;;;;;10369699;28;20224;-65
2023/12/14 21:55:28;;;;;;;28.47;18.63;;;7.30;99.40;;;;;;10374213;28;20224;-64
2023/12/14 22:00:33;;;;;;;24.67;16.77;;;7.40;99.50;;;;;;10373494;28;20872;-64
2023/12/14 22:05:37;;;;;;;24.40;17.63;;;7.40;99.60;;;;;;10369553;28;20285;-65
2023/12/14 22:10:41;;;;;;;23.87;17.40;;;7.40;99.50;;;;;;10365404;28;20248;-65
2023/12/14 22:15:46;;;;;;;23.43;18.13;;;7.40;99.40;;;;;;10373081;28;20274;-65
2023/12/14 22:20:49;;;;;;;23.57;17.23;;;7.40;99.50;;;;;;10373467;28;20196;-65
2023/12/14 22:25:53;;;;;;;22.13;16.97;;;7.40;99.40;;;;;;10372914;28;20679;-65
2023/12/14 22:30:58;;;;;;;23.47;17.33;;;7.40;99.60;;;;;;10371864;28;20270;-65
2023/12/14 22:36:02;;;;;;;24.33;16.73;;;7.40;99.40;;;;;;10372216;28;20204;-65
2023/12/14 22:41:05;;;;;;;24.43;17.47;;;7.40;99.50;;;;;;10366053;28;20601;-65
2023/12/14 22:46:10;;;;;;;22.93;16.20;;;7.50;99.50;;;;;;10371204;28;20247;-65
2023/12/14 22:51:18;;;;;;;22.03;17.07;;;7.50;99.50;;;;;;10372097;28;20231;-66
2023/12/14 22:56:22;;;;;;;25.03;16.60;;;7.50;99.50;;;;;;10370774;28;20203;-64
2023/12/14 23:01:32;;;;;;;23.70;17.67;;;7.50;99.40;;;;;;10371031;28;20285;-65
2023/12/14 23:06:35;;;;;;;23.40;17.77;;;7.50;99.40;;;;;;10371382;28;20246;-65
2023/12/14 23:11:39;;;;;;;24.07;17.70;;;7.50;99.50;;;;;;10368010;28;20256;-65
2023/12/14 23:16:46;;;;;;;23.90;17.10;;;7.50;99.40;;;;;;10367289;28;20231;-65
2023/12/14 23:21:50;;;;;;;22.13;16.70;;;7.50;99.40;;;;;;10368584;28;20274;-66
2023/12/14 23:26:53;;;;;;;22.40;16.53;;;7.50;99.50;;;;;;10365975;28;20734;-66
2023/12/14 23:31:58;;;;;;;25.73;18.10;;;7.40;99.50;;;;;;10360931;28;20599;-65
2023/12/14 23:37:02;;;;;;;27.97;18.27;;;7.40;99.60;;;;;;10358632;28;20203;-65
2023/12/14 23:42:06;;;;;;;24.40;18.13;;;7.40;99.70;;;;;;10367303;28;20261;-65
2023/12/14 23:47:11;;;;;;;23.60;16.80;;;7.40;99.70;;;;;;10366439;28;20330;-65
2023/12/14 23:52:15;;;;;;;25.00;17.73;;;7.30;99.60;;;;;;10364312;28;20233;-65
2023/12/14 23:57:19;;;;;;;25.40;18.13;;;7.30;99.60;;;;;;10361796;28;20204;-65
